sensor_id;sensor_type;location;lat;lon;timestamp;pressure;altitude;pressure_sealevel;temperature;humidity
61119;BME280;51448;51.660;5.824;2022-11-02T00:02:17;101321.09;;;14.22;74.37
61119;BME280;51448;51.660;5.824;2022-11-02T00:04:45;101316.75;;;14.21;74.65
61119;BME280;51448;51.660;5.824;2022-11-02T00:07:12;101307.13;;;14.19;75.21
61119;BME280;51448;51.660;5.824;2022-11-02T00:09:40;101305.34;;;14.19;75.29
61119;BME280;51448;51.660;5.824;2022-11-02T00:12:07;101302.75;;;14.18;75.11
61119;BME280;51448;51.660;5.824;2022-11-02T00:14:34;101299.31;;;14.16;75.09
61119;BME280;51448;51.660;5.824;2022-11-02T00:17:02;101299.34;;;14.14;75.54
61119;BME280;51448;51.660;5.824;2022-11-02T00:19:29;101302.00;;;14.14;75.17
61119;BME280;51448;51.660;5.824;2022-11-02T00:21:57;101309.97;;;14.13;75.60
61119;BME280;51448;51.660;5.824;2022-11-02T00:24:25;101300.28;;;14.13;75.61
61119;BME280;51448;51.660;5.824;2022-11-02T00:26:53;101295.91;;;14.12;76.08
61119;BME280;51448;51.660;5.824;2022-11-02T00:29:21;101280.97;;;14.11;75.88
61119;BME280;51448;51.660;5.824;2022-11-02T00:31:50;101286.34;;;14.08;75.88
61119;BME280;51448;51.660;5.824;2022-11-02T00:34:17;101295.22;;;14.07;75.97
61119;BME280;51448;51.660;5.824;2022-11-02T00:36:45;101285.59;;;14.04;75.68
61119;BME280;51448;51.660;5.824;2022-11-02T00:39:16;101288.44;;;13.98;75.86
61119;BME280;51448;51.660;5.824;2022-11-02T00:41:44;101296.50;;;13.95;76.76
61119;BME280;51448;51.660;5.824;2022-11-02T00:44:11;101288.63;;;13.94;76.78
61119;BME280;51448;51.660;5.824;2022-11-02T00:46:39;101297.47;;;13.93;76.59
61119;BME280;51448;51.660;5.824;2022-11-02T00:49:06;101295.91;;;13.87;76.79
61119;BME280;51448;51.660;5.824;2022-11-02T00:51:35;101290.78;;;13.82;76.69
61119;BME280;51448;51.660;5.824;2022-11-02T00:54:02;101289.16;;;13.78;76.55
61119;BME280;51448;51.660;5.824;2022-11-02T00:56:31;101294.56;;;13.74;76.93
61119;BME280;51448;51.660;5.824;2022-11-02T00:58:59;101290.31;;;13.69;77.39
61119;BME280;51448;51.660;5.824;2022-11-02T01:01:27;101297.44;;;13.67;76.78
61119;BME280;51448;51.660;5.824;2022-11-02T01:03:55;101296.72;;;13.62;76.94
61119;BME280;51448;51.660;5.824;2022-11-02T01:06:23;101310.03;;;13.59;77.33
61119;BME280;51448;51.660;5.824;2022-11-02T01:08:50;101307.47;;;13.58;77.27
61119;BME280;51448;51.660;5.824;2022-11-02T01:11:21;101317.16;;;13.57;78.12
61119;BME280;51448;51.660;5.824;2022-11-02T01:13:50;101319.91;;;13.54;78.06
61119;BME280;51448;51.660;5.824;2022-11-02T01:16:18;101315.53;;;13.53;77.85
61119;BME280;51448;51.660;5.824;2022-11-02T01:18:50;101329.66;;;13.52;77.74
61119;BME280;51448;51.660;5.824;2022-11-02T01:21:19;101320.09;;;13.48;77.73
61119;BME280;51448;51.660;5.824;2022-11-02T01:23:47;101321.91;;;13.47;78.38
61119;BME280;51448;51.660;5.824;2022-11-02T01:26:15;101331.56;;;13.47;78.38
61119;BME280;51448;51.660;5.824;2022-11-02T01:28:43;101323.72;;;13.45;78.56
61119;BME280;51448;51.660;5.824;2022-11-02T01:31:12;101333.41;;;13.45;78.48
61119;BME280;51448;51.660;5.824;2022-11-02T01:33:43;101330.84;;;13.43;78.90
61119;BME280;51448;51.660;5.824;2022-11-02T01:36:13;101330.88;;;13.42;78.26
61119;BME280;51448;51.660;5.824;2022-11-02T01:38:42;101335.31;;;13.41;78.27
61119;BME280;51448;51.660;5.824;2022-11-02T01:41:10;101332.66;;;13.41;78.35
61119;BME280;51448;51.660;5.824;2022-11-02T01:43:43;101330.94;;;13.39;78.68
61119;BME280;51448;51.660;5.824;2022-11-02T01:49:02;101333.72;;;13.36;77.92
61119;BME280;51448;51.660;5.824;2022-11-02T01:51:49;101340.81;;;13.34;77.72
61119;BME280;51448;51.660;5.824;2022-11-02T01:54:26;101336.44;;;13.33;76.96
61119;BME280;51448;51.660;5.824;2022-11-02T01:57:03;101351.34;;;13.35;76.12
61119;BME280;51448;51.660;5.824;2022-11-02T02:02:48;101358.31;;;13.38;74.92
61119;BME280;51448;51.660;5.824;2022-11-02T02:05:22;101351.28;;;13.37;74.84
61119;BME280;51448;51.660;5.824;2022-11-02T02:07:51;101355.66;;;13.38;74.92
61119;BME280;51448;51.660;5.824;2022-11-02T02:10:19;101364.41;;;13.40;74.23
61119;BME280;51448;51.660;5.824;2022-11-02T02:12:56;101363.63;;;13.36;74.39
61119;BME280;51448;51.660;5.824;2022-11-02T02:15:34;101361.09;;;13.33;74.18
61119;BME280;51448;51.660;5.824;2022-11-02T02:18:21;101369.06;;;13.32;74.60
61119;BME280;51448;51.660;5.824;2022-11-02T02:27:27;101366.47;;;13.28;74.42
61119;BME280;51448;51.660;5.824;2022-11-02T02:30:08;101362.97;;;13.30;74.85
61119;BME280;51448;51.660;5.824;2022-11-02T02:35:40;101355.88;;;13.30;74.69
61119;BME280;51448;51.660;5.824;2022-11-02T02:38:45;101351.47;;;13.31;74.28
61119;BME280;51448;51.660;5.824;2022-11-02T02:41:36;101354.19;;;13.29;75.00
61119;BME280;51448;51.660;5.824;2022-11-02T02:44:18;101367.41;;;13.27;74.82
61119;BME280;51448;51.660;5.824;2022-11-02T02:46:54;101366.53;;;13.27;74.53
61119;BME280;51448;51.660;5.824;2022-11-02T02:49:32;101365.75;;;13.23;74.88
61119;BME280;51448;51.660;5.824;2022-11-02T02:52:05;101361.38;;;13.22;74.86
61119;BME280;51448;51.660;5.824;2022-11-02T02:54:37;101358.03;;;13.17;75.32
61119;BME280;51448;51.660;5.824;2022-11-02T02:57:11;101366.03;;;13.14;75.56
61119;BME280;51448;51.660;5.824;2022-11-02T02:59:45;101369.66;;;13.10;75.71
61119;BME280;51448;51.660;5.824;2022-11-02T03:02:22;101368.78;;;13.11;75.87
61119;BME280;51448;51.660;5.824;2022-11-02T03:04:53;101382.06;;;13.08;75.48
61119;BME280;51448;51.660;5.824;2022-11-02T03:07:27;101376.88;;;13.05;75.49
61119;BME280;51448;51.660;5.824;2022-11-02T03:10:15;101375.25;;;13.01;75.63
61119;BME280;51448;51.660;5.824;2022-11-02T03:15:40;101381.59;;;12.94;75.97
61119;BME280;51448;51.660;5.824;2022-11-02T03:18:25;101383.47;;;12.90;76.33
61119;BME280;51448;51.660;5.824;2022-11-02T03:21:35;101377.41;;;12.86;76.11
61119;BME280;51448;51.660;5.824;2022-11-02T03:24:26;101380.09;;;12.85;76.50
61119;BME280;51448;51.660;5.824;2022-11-02T03:27:18;101381.06;;;12.82;76.47
61119;BME280;51448;51.660;5.824;2022-11-02T03:30:09;101380.19;;;12.82;77.11
61119;BME280;51448;51.660;5.824;2022-11-02T03:32:55;101386.41;;;12.79;76.91
61119;BME280;51448;51.660;5.824;2022-11-02T03:35:52;101386.50;;;12.76;76.98
61119;BME280;51448;51.660;5.824;2022-11-02T03:38:34;101380.41;;;12.74;76.88
61119;BME280;51448;51.660;5.824;2022-11-02T03:41:05;101398.91;;;12.73;77.47
61119;BME280;51448;51.660;5.824;2022-11-02T03:43:35;101397.25;;;12.70;76.94
61119;BME280;51448;51.660;5.824;2022-11-02T03:46:05;101396.38;;;12.70;77.28
61119;BME280;51448;51.660;5.824;2022-11-02T03:48:45;101394.66;;;12.67;77.13
61119;BME280;51448;51.660;5.824;2022-11-02T03:51:21;101399.91;;;12.68;77.00
61119;BME280;51448;51.660;5.824;2022-11-02T03:53:55;101401.66;;;12.70;76.97
61119;BME280;51448;51.660;5.824;2022-11-02T03:56:34;101402.41;;;12.73;76.62
61119;BME280;51448;51.660;5.824;2022-11-02T03:59:08;101407.78;;;12.70;77.22
61119;BME280;51448;51.660;5.824;2022-11-02T04:01:42;101397.25;;;12.70;76.64
61119;BME280;51448;51.660;5.824;2022-11-02T04:04:15;101422.78;;;12.70;76.78
61119;BME280;51448;51.660;5.824;2022-11-02T04:06:46;101414.03;;;12.67;77.02
61119;BME280;51448;51.660;5.824;2022-11-02T04:09:15;101412.28;;;12.66;76.86
61119;BME280;51448;51.660;5.824;2022-11-02T04:11:43;101414.06;;;12.66;76.66
61119;BME280;51448;51.660;5.824;2022-11-02T04:14:30;101416.78;;;12.63;76.72
61119;BME280;51448;51.660;5.824;2022-11-02T04:17:08;101422.06;;;12.63;76.69
61119;BME280;51448;51.660;5.824;2022-11-02T04:19:57;101435.31;;;12.61;76.44
61119;BME280;51448;51.660;5.824;2022-11-02T04:22:26;101436.19;;;12.60;76.80
61119;BME280;51448;51.660;5.824;2022-11-02T04:25:17;101445.06;;;12.58;76.93
61119;BME280;51448;51.660;5.824;2022-11-02T04:28:07;101439.75;;;12.59;76.71
61119;BME280;51448;51.660;5.824;2022-11-02T04:30:42;101453.84;;;12.58;76.85
61119;BME280;51448;51.660;5.824;2022-11-02T04:33:10;101463.50;;;12.59;76.93
61119;BME280;51448;51.660;5.824;2022-11-02T04:36:06;101455.63;;;12.58;76.88
61119;BME280;51448;51.660;5.824;2022-11-02T04:38:35;101463.56;;;12.56;76.86
61119;BME280;51448;51.660;5.824;2022-11-02T04:41:29;101460.91;;;12.58;76.98
61119;BME280;51448;51.660;5.824;2022-11-02T04:44:14;101458.31;;;12.56;77.40
61119;BME280;51448;51.660;5.824;2022-11-02T04:46:47;101462.72;;;12.56;77.08
61119;BME280;51448;51.660;5.824;2022-11-02T04:49:18;101466.25;;;12.55;76.97
61119;BME280;51448;51.660;5.824;2022-11-02T04:51:46;101466.25;;;12.55;77.23
61119;BME280;51448;51.660;5.824;2022-11-02T04:54:18;101481.19;;;12.56;77.61
61119;BME280;51448;51.660;5.824;2022-11-02T04:56:49;101475.91;;;12.56;77.49
61119;BME280;51448;51.660;5.824;2022-11-02T04:59:19;101489.00;;;12.59;77.28
61119;BME280;51448;51.660;5.824;2022-11-02T05:01:47;101490.75;;;12.60;77.50
61119;BME280;51448;51.660;5.824;2022-11-02T05:04:15;101488.09;;;12.61;76.81
61119;BME280;51448;51.660;5.824;2022-11-02T05:06:43;101487.19;;;12.61;77.14
61119;BME280;51448;51.660;5.824;2022-11-02T05:09:11;101493.44;;;12.58;77.09
61119;BME280;51448;51.660;5.824;2022-11-02T05:11:42;101493.44;;;12.58;77.56
61119;BME280;51448;51.660;5.824;2022-11-02T05:14:10;101508.47;;;12.55;77.30
61119;BME280;51448;51.660;5.824;2022-11-02T05:16:38;101506.75;;;12.54;77.58
61119;BME280;51448;51.660;5.824;2022-11-02T05:19:06;101505.94;;;12.50;77.68
61119;BME280;51448;51.660;5.824;2022-11-02T05:21:38;101507.75;;;12.48;77.67
61119;BME280;51448;51.660;5.824;2022-11-02T05:24:06;101514.84;;;12.46;77.46
61119;BME280;51448;51.660;5.824;2022-11-02T05:26:34;101525.44;;;12.44;77.30
61119;BME280;51448;51.660;5.824;2022-11-02T05:29:02;101528.06;;;12.44;77.83
61119;BME280;51448;51.660;5.824;2022-11-02T05:31:30;101532.38;;;12.48;77.47
61119;BME280;51448;51.660;5.824;2022-11-02T05:33:58;101541.19;;;12.47;77.98
61119;BME280;51448;51.660;5.824;2022-11-02T05:36:25;101549.13;;;12.47;77.24
61119;BME280;51448;51.660;5.824;2022-11-02T05:38:54;101547.31;;;12.50;77.90
61119;BME280;51448;51.660;5.824;2022-11-02T05:41:22;101542.88;;;12.52;77.74
61119;BME280;51448;51.660;5.824;2022-11-02T05:43:52;101563.03;;;12.53;77.96
61119;BME280;51448;51.660;5.824;2022-11-02T05:46:21;101561.22;;;12.56;77.20
61119;BME280;51448;51.660;5.824;2022-11-02T05:48:49;101563.81;;;12.58;77.50
61119;BME280;51448;51.660;5.824;2022-11-02T05:51:16;101567.28;;;12.60;76.69
61119;BME280;51448;51.660;5.824;2022-11-02T05:53:44;101569.00;;;12.61;76.90
61119;BME280;51448;51.660;5.824;2022-11-02T05:56:11;101591.00;;;12.61;76.95
61119;BME280;51448;51.660;5.824;2022-11-02T05:58:40;101573.41;;;12.60;77.10
61119;BME280;51448;51.660;5.824;2022-11-02T06:01:10;101583.13;;;12.60;76.92
61119;BME280;51448;51.660;5.824;2022-11-02T06:03:38;101591.03;;;12.60;76.97
61119;BME280;51448;51.660;5.824;2022-11-02T06:06:08;101589.28;;;12.59;76.37
61119;BME280;51448;51.660;5.824;2022-11-02T06:08:37;101586.72;;;12.56;76.74
61119;BME280;51448;51.660;5.824;2022-11-02T06:11:10;101599.09;;;12.54;77.11
61119;BME280;51448;51.660;5.824;2022-11-02T06:13:39;101602.75;;;12.48;76.90
61119;BME280;51448;51.660;5.824;2022-11-02T06:16:10;101608.09;;;12.45;76.97
61119;BME280;51448;51.660;5.824;2022-11-02T06:18:38;101613.56;;;12.37;77.00
61119;BME280;51448;51.660;5.824;2022-11-02T06:21:06;101628.56;;;12.35;77.03
61119;BME280;51448;51.660;5.824;2022-11-02T06:23:34;101628.56;;;12.35;77.28
61119;BME280;51448;51.660;5.824;2022-11-02T06:26:02;101630.41;;;12.30;77.36
61119;BME280;51448;51.660;5.824;2022-11-02T06:28:29;101640.22;;;12.25;77.57
61119;BME280;51448;51.660;5.824;2022-11-02T06:30:57;101645.63;;;12.19;77.59
61119;BME280;51448;51.660;5.824;2022-11-02T06:33:25;101644.78;;;12.17;77.88
61119;BME280;51448;51.660;5.824;2022-11-02T06:35:53;101658.06;;;12.12;77.71
61119;BME280;51448;51.660;5.824;2022-11-02T06:38:21;101655.50;;;12.07;78.15
61119;BME280;51448;51.660;5.824;2022-11-02T06:40:53;101669.66;;;12.03;78.33
61119;BME280;51448;51.660;5.824;2022-11-02T06:43:21;101671.53;;;11.98;78.26
61119;BME280;51448;51.660;5.824;2022-11-02T06:45:53;101676.84;;;11.95;78.54
61119;BME280;51448;51.660;5.824;2022-11-02T06:48:22;101683.91;;;11.95;79.35
61119;BME280;51448;51.660;5.824;2022-11-02T06:50:56;101697.13;;;11.93;79.06
61119;BME280;51448;51.660;5.824;2022-11-02T06:53:24;101703.31;;;11.92;78.99
61119;BME280;51448;51.660;5.824;2022-11-02T06:55:56;101708.56;;;11.92;79.45
61119;BME280;51448;51.660;5.824;2022-11-02T06:58:25;101719.16;;;11.89;79.05
61119;BME280;51448;51.660;5.824;2022-11-02T07:00:57;101721.78;;;11.89;79.41
61119;BME280;51448;51.660;5.824;2022-11-02T07:03:27;101727.97;;;11.86;79.31
61119;BME280;51448;51.660;5.824;2022-11-02T07:05:56;101735.06;;;11.83;79.66
61119;BME280;51448;51.660;5.824;2022-11-02T07:08:24;101739.50;;;11.81;79.76
61119;BME280;51448;51.660;5.824;2022-11-02T07:10:53;101749.19;;;11.79;79.57
61119;BME280;51448;51.660;5.824;2022-11-02T07:13:21;101746.53;;;11.80;80.05
61119;BME280;51448;51.660;5.824;2022-11-02T07:15:53;101748.28;;;11.81;79.77
61119;BME280;51448;51.660;5.824;2022-11-02T07:18:21;101757.09;;;11.80;80.60
61119;BME280;51448;51.660;5.824;2022-11-02T07:20:49;101762.38;;;11.79;80.38
61119;BME280;51448;51.660;5.824;2022-11-02T07:23:16;101773.84;;;11.76;80.26
61119;BME280;51448;51.660;5.824;2022-11-02T07:25:43;101766.81;;;11.77;80.68
61119;BME280;51448;51.660;5.824;2022-11-02T07:28:11;101772.06;;;11.78;80.50
61119;BME280;51448;51.660;5.824;2022-11-02T07:30:38;101781.72;;;11.79;79.69
61119;BME280;51448;51.660;5.824;2022-11-02T07:33:06;101784.34;;;11.79;80.10
61119;BME280;51448;51.660;5.824;2022-11-02T07:35:33;101799.28;;;11.79;80.03
61119;BME280;51448;51.660;5.824;2022-11-02T07:38:03;101798.41;;;11.78;80.34
61119;BME280;51448;51.660;5.824;2022-11-02T07:40:34;101801.03;;;11.80;80.46
61119;BME280;51448;51.660;5.824;2022-11-02T07:43:02;101802.81;;;11.79;79.85
61119;BME280;51448;51.660;5.824;2022-11-02T07:45:51;101800.13;;;11.81;79.94
61119;BME280;51448;51.660;5.824;2022-11-02T07:48:18;101802.75;;;11.81;80.12
61119;BME280;51448;51.660;5.824;2022-11-02T07:50:46;101798.31;;;11.83;79.83
61119;BME280;51448;51.660;5.824;2022-11-02T07:53:14;101808.88;;;11.83;80.07
61119;BME280;51448;51.660;5.824;2022-11-02T07:55:41;101807.13;;;11.82;79.75
61119;BME280;51448;51.660;5.824;2022-11-02T07:58:10;101815.94;;;11.81;80.05
61119;BME280;51448;51.660;5.824;2022-11-02T08:00:40;101822.00;;;11.86;79.70
61119;BME280;51448;51.660;5.824;2022-11-02T08:03:09;101829.94;;;11.84;80.39
61119;BME280;51448;51.660;5.824;2022-11-02T08:05:39;101832.53;;;11.87;80.29
61119;BME280;51448;51.660;5.824;2022-11-02T08:08:15;101829.00;;;11.87;80.18
61119;BME280;51448;51.660;5.824;2022-11-02T08:10:45;101832.50;;;11.89;79.93
61119;BME280;51448;51.660;5.824;2022-11-02T08:13:16;101839.56;;;11.88;80.45
61119;BME280;51448;51.660;5.824;2022-11-02T08:15:49;101843.94;;;11.88;80.18
61119;BME280;51448;51.660;5.824;2022-11-02T08:18:22;101840.41;;;11.89;80.91
61119;BME280;51448;51.660;5.824;2022-11-02T08:20:51;101848.28;;;11.94;80.71
61119;BME280;51448;51.660;5.824;2022-11-02T08:23:23;101855.25;;;11.96;80.70
61119;BME280;51448;51.660;5.824;2022-11-02T08:25:53;101861.38;;;11.98;80.40
61119;BME280;51448;51.660;5.824;2022-11-02T08:28:25;101857.78;;;12.01;80.03
61119;BME280;51448;51.660;5.824;2022-11-02T08:30:56;101861.28;;;12.01;80.53
61119;BME280;51448;51.660;5.824;2022-11-02T08:33:25;101860.41;;;12.02;80.92
61119;BME280;51448;51.660;5.824;2022-11-02T08:35:52;101857.72;;;12.05;81.02
61119;BME280;51448;51.660;5.824;2022-11-02T08:38:20;101867.25;;;12.13;80.72
61119;BME280;51448;51.660;5.824;2022-11-02T08:40:50;101868.03;;;12.18;80.81
61119;BME280;51448;51.660;5.824;2022-11-02T08:43:18;101866.25;;;12.20;80.75
61119;BME280;51448;51.660;5.824;2022-11-02T08:45:45;101867.06;;;12.23;80.57
61119;BME280;51448;51.660;5.824;2022-11-02T08:48:32;101878.44;;;12.27;80.63
61119;BME280;51448;51.660;5.824;2022-11-02T08:51:00;101886.28;;;12.30;80.93
61119;BME280;51448;51.660;5.824;2022-11-02T08:53:28;101887.06;;;12.37;80.31
61119;BME280;51448;51.660;5.824;2022-11-02T08:55:56;101883.38;;;12.45;80.15
61119;BME280;51448;51.660;5.824;2022-11-02T08:58:25;101896.47;;;12.50;80.12
61119;BME280;51448;51.660;5.824;2022-11-02T09:00:53;101898.97;;;12.58;79.36
61119;BME280;51448;51.660;5.824;2022-11-02T09:03:21;101893.56;;;12.64;79.38
61119;BME280;51448;51.660;5.824;2022-11-02T09:05:58;101898.69;;;12.72;79.38
61119;BME280;51448;51.660;5.824;2022-11-02T09:08:29;101889.84;;;12.74;79.23
61119;BME280;51448;51.660;5.824;2022-11-02T09:10:59;101898.47;;;12.82;78.53
61119;BME280;51448;51.660;5.824;2022-11-02T09:13:28;101901.88;;;12.87;78.42
61119;BME280;51448;51.660;5.824;2022-11-02T09:15:57;101901.88;;;12.87;78.42
61119;BME280;51448;51.660;5.824;2022-11-02T09:18:26;101900.03;;;12.91;77.67
61119;BME280;51448;51.660;5.824;2022-11-02T09:20:54;101895.56;;;12.95;77.94
61119;BME280;51448;51.660;5.824;2022-11-02T09:23:22;101900.78;;;12.98;77.38
61119;BME280;51448;51.660;5.824;2022-11-02T09:25:49;101900.72;;;13.01;78.05
61119;BME280;51448;51.660;5.824;2022-11-02T09:28:17;101907.66;;;13.06;77.56
61119;BME280;51448;51.660;5.824;2022-11-02T09:30:44;101909.28;;;13.12;76.77
61119;BME280;51448;51.660;5.824;2022-11-02T09:33:12;101914.56;;;13.12;76.59
61119;BME280;51448;51.660;5.824;2022-11-02T09:35:43;101919.72;;;13.18;76.25
61119;BME280;51448;51.660;5.824;2022-11-02T09:38:12;101917.81;;;13.25;75.28
61119;BME280;51448;51.660;5.824;2022-11-02T09:41:05;101924.81;;;13.27;75.53
61119;BME280;51448;51.660;5.824;2022-11-02T09:43:57;101918.59;;;13.28;74.95
61119;BME280;51448;51.660;5.824;2022-11-02T09:46:33;101927.38;;;13.32;74.99
61119;BME280;51448;51.660;5.824;2022-11-02T09:49:17;101917.59;;;13.37;74.95
61119;BME280;51448;51.660;5.824;2022-11-02T09:51:52;101931.56;;;13.42;74.32
61119;BME280;51448;51.660;5.824;2022-11-02T09:54:26;101927.94;;;13.46;73.80
61119;BME280;51448;51.660;5.824;2022-11-02T09:56:59;101939.22;;;13.53;74.37
61119;BME280;51448;51.660;5.824;2022-11-02T09:59:36;101934.69;;;13.60;74.19
61119;BME280;51448;51.660;5.824;2022-11-02T10:02:14;101947.78;;;13.64;73.39
61119;BME280;51448;51.660;5.824;2022-11-02T10:10:46;101943.16;;;13.74;73.95
61119;BME280;51448;51.660;5.824;2022-11-02T10:16:31;101948.06;;;13.91;74.20
61119;BME280;51448;51.660;5.824;2022-11-02T10:19:03;101953.31;;;13.93;73.69
61119;BME280;51448;51.660;5.824;2022-11-02T10:21:41;101966.44;;;13.96;73.01
61119;BME280;51448;51.660;5.824;2022-11-02T10:27:14;101966.25;;;14.03;72.94
61119;BME280;51448;51.660;5.824;2022-11-02T10:30:10;101968.63;;;14.14;72.63
61119;BME280;51448;51.660;5.824;2022-11-02T10:32:41;101973.59;;;14.28;71.57
61119;BME280;51448;51.660;5.824;2022-11-02T10:35:46;101972.44;;;14.38;72.17
61119;BME280;51448;51.660;5.824;2022-11-02T10:42:34;102001.91;;;14.60;71.36
61119;BME280;51448;51.660;5.824;2022-11-02T10:47:57;101977.94;;;14.66;70.86
61119;BME280;51448;51.660;5.824;2022-11-02T10:50:49;101975.19;;;14.69;70.68
61119;BME280;51448;51.660;5.824;2022-11-02T10:53:23;101975.84;;;14.78;69.61
61119;BME280;51448;51.660;5.824;2022-11-02T10:56:14;101980.78;;;14.90;68.56
61119;BME280;51448;51.660;5.824;2022-11-02T10:59:13;101985.09;;;14.94;69.86
61119;BME280;51448;51.660;5.824;2022-11-02T11:04:27;101985.44;;;15.13;68.78
61119;BME280;51448;51.660;5.824;2022-11-02T11:06:58;102000.34;;;15.17;68.29
61119;BME280;51448;51.660;5.824;2022-11-02T11:09:49;101988.91;;;15.15;68.92
61119;BME280;51448;51.660;5.824;2022-11-02T11:12:32;101995.97;;;15.16;67.37
61119;BME280;51448;51.660;5.824;2022-11-02T11:15:05;101993.53;;;15.08;67.90
61119;BME280;51448;51.660;5.824;2022-11-02T11:17:54;101997.16;;;15.04;66.72
61119;BME280;51448;51.660;5.824;2022-11-02T11:20:42;101995.53;;;15.00;67.44
61119;BME280;51448;51.660;5.824;2022-11-02T11:23:24;101998.78;;;15.10;67.03
61119;BME280;51448;51.660;5.824;2022-11-02T11:26:03;101999.50;;;15.15;66.75
61119;BME280;51448;51.660;5.824;2022-11-02T11:28:38;101993.16;;;15.21;65.90
61119;BME280;51448;51.660;5.824;2022-11-02T11:31:18;101986.91;;;15.23;65.85
61119;BME280;51448;51.660;5.824;2022-11-02T11:33:54;101987.63;;;15.30;64.95
61119;BME280;51448;51.660;5.824;2022-11-02T11:36:30;101989.31;;;15.33;66.39
61119;BME280;51448;51.660;5.824;2022-11-02T11:39:04;101990.03;;;15.38;64.67
61119;BME280;51448;51.660;5.824;2022-11-02T11:41:38;101989.00;;;15.42;64.60
61119;BME280;51448;51.660;5.824;2022-11-02T11:44:12;101990.66;;;15.46;64.16
61119;BME280;51448;51.660;5.824;2022-11-02T11:46:44;101980.75;;;15.53;62.72
61119;BME280;51448;51.660;5.824;2022-11-02T11:49:35;101978.03;;;15.54;63.49
61119;BME280;51448;51.660;5.824;2022-11-02T11:52:32;101970.91;;;15.56;63.15
61119;BME280;51448;51.660;5.824;2022-11-02T11:55:18;101973.44;;;15.61;63.58
61119;BME280;51448;51.660;5.824;2022-11-02T11:58:15;101975.00;;;15.66;63.70
61119;BME280;51448;51.660;5.824;2022-11-02T12:03:51;101971.34;;;15.70;62.29
61119;BME280;51448;51.660;5.824;2022-11-02T12:07:10;101972.19;;;15.73;62.14
61119;BME280;51448;51.660;5.824;2022-11-02T12:09:45;101970.34;;;15.75;61.49
61119;BME280;51448;51.660;5.824;2022-11-02T12:12:51;101962.38;;;15.76;62.29
61119;BME280;51448;51.660;5.824;2022-11-02T12:24:24;101971.75;;;15.86;60.80
61119;BME280;51448;51.660;5.824;2022-11-02T12:30:09;101964.25;;;15.99;60.73
61119;BME280;51448;51.660;5.824;2022-11-02T12:36:18;101952.38;;;16.11;59.25
61119;BME280;51448;51.660;5.824;2022-11-02T12:42:38;101946.41;;;16.04;58.90
61119;BME280;51448;51.660;5.824;2022-11-02T12:46:15;101936.84;;;16.00;60.23
61119;BME280;51448;51.660;5.824;2022-11-02T12:48:48;101939.66;;;15.96;59.09
61119;BME280;51448;51.660;5.824;2022-11-02T12:51:44;101927.44;;;15.90;59.65
61119;BME280;51448;51.660;5.824;2022-11-02T12:54:27;101929.28;;;15.88;60.45
61119;BME280;51448;51.660;5.824;2022-11-02T12:57:12;101941.53;;;15.92;60.89
61119;BME280;51448;51.660;5.824;2022-11-02T12:59:43;101939.66;;;15.96;60.20
61119;BME280;51448;51.660;5.824;2022-11-02T13:02:19;101943.78;;;16.04;60.80
61119;BME280;51448;51.660;5.824;2022-11-02T13:04:57;101941.88;;;16.08;60.16
61119;BME280;51448;51.660;5.824;2022-11-02T13:07:37;101937.31;;;16.12;60.86
61119;BME280;51448;51.660;5.824;2022-11-02T13:10:22;101941.13;;;16.04;60.64
61119;BME280;51448;51.660;5.824;2022-11-02T13:12:57;101936.09;;;15.95;61.13
61119;BME280;51448;51.660;5.824;2022-11-02T13:15:30;101929.16;;;15.91;61.43
61119;BME280;51448;51.660;5.824;2022-11-02T13:18:10;101928.13;;;15.95;61.79
61119;BME280;51448;51.660;5.824;2022-11-02T13:20:54;101917.41;;;16.00;61.85
61119;BME280;51448;51.660;5.824;2022-11-02T13:26:02;101919.31;;;15.95;61.88
61119;BME280;51448;51.660;5.824;2022-11-02T13:28:46;101917.84;;;15.86;61.23
61119;BME280;51448;51.660;5.824;2022-11-02T13:31:29;101919.03;;;15.77;62.09
61119;BME280;51448;51.660;5.824;2022-11-02T13:34:04;101902.94;;;15.82;62.30
61119;BME280;51448;51.660;5.824;2022-11-02T13:36:38;101900.91;;;15.90;63.16
61119;BME280;51448;51.660;5.824;2022-11-02T13:39:20;101900.50;;;16.02;62.03
61119;BME280;51448;51.660;5.824;2022-11-02T13:50:33;101890.44;;;16.12;61.25
61119;BME280;51448;51.660;5.824;2022-11-02T13:53:19;101886.81;;;16.15;62.22
61119;BME280;51448;51.660;5.824;2022-11-02T13:55:54;101892.06;;;16.16;62.39
61119;BME280;51448;51.660;5.824;2022-11-02T13:58:30;101893.69;;;16.20;61.98
61119;BME280;51448;51.660;5.824;2022-11-02T14:01:05;101892.88;;;16.18;61.45
61119;BME280;51448;51.660;5.824;2022-11-02T14:06:30;101891.31;;;16.13;62.50
61119;BME280;51448;51.660;5.824;2022-11-02T14:09:09;101889.75;;;16.05;62.87
61119;BME280;51448;51.660;5.824;2022-11-02T14:11:48;101890.09;;;15.96;63.03
61119;BME280;51448;51.660;5.824;2022-11-02T14:14:19;101883.38;;;15.86;63.47
61119;BME280;51448;51.660;5.824;2022-11-02T14:32:41;101873.78;;;15.82;62.57
61119;BME280;51448;51.660;5.824;2022-11-02T14:38:35;101872.03;;;15.81;62.92
61119;BME280;51448;51.660;5.824;2022-11-02T14:41:30;101866.78;;;15.79;63.46
61119;BME280;51448;51.660;5.824;2022-11-02T14:47:13;101856.56;;;15.67;63.87
61119;BME280;51448;51.660;5.824;2022-11-02T14:52:27;101867.50;;;15.56;63.72
61119;BME280;51448;51.660;5.824;2022-11-02T14:58:03;101863.47;;;15.44;64.35
61119;BME280;51448;51.660;5.824;2022-11-02T15:00:53;101860.94;;;15.40;64.49
61119;BME280;51448;51.660;5.824;2022-11-02T15:14:31;101844.31;;;15.06;64.88
61119;BME280;51448;51.660;5.824;2022-11-02T15:19:51;101840.34;;;14.93;65.94
61119;BME280;51448;51.660;5.824;2022-11-02T15:22:52;101841.41;;;14.86;65.72
61119;BME280;51448;51.660;5.824;2022-11-02T15:25:38;101846.09;;;14.76;66.16
61119;BME280;51448;51.660;5.824;2022-11-02T15:28:14;101831.41;;;14.66;65.97